<?xml version="1.0" encoding="UTF-8" standalone="no" ?>
<gpx xmlns="http://www.topografix.com/GPX/1/1" xmlns:xsi="http://www.w3.org/2001/XMLSchema-instance" xsi:schemaLocation="http://www.topografix.com/GPX/1/1 http://www.topografix.com/GPX/1/1/gpx.xsd" version="1.1" creator="VisuGPX - https://www.visugpx.com">
  <metadata>
    <name>Saint-Laurent : La Rouillardière- la Chapelle</name>
  </metadata>
  <trk>
    <name><![CDATA[14008816-La Rouillardière- la Chapelle]]></name>
    <trkseg>
      <trkpt lat="46.94917" lon="-0.87147">
        <ele>159</ele>
        <time>2021-12-13T17:09:21Z</time>
      </trkpt>
      <trkpt lat="46.94922" lon="-0.87139">
        <ele>159</ele>
        <time>2021-12-13T17:09:27Z</time>
      </trkpt>
      <trkpt lat="46.94948" lon="-0.87118">
        <ele>158</ele>
        <time>2021-12-13T17:09:51Z</time>
      </trkpt>
      <trkpt lat="46.95083" lon="-0.87042">
        <ele>148</ele>
        <time>2021-12-13T17:11:46Z</time>
      </trkpt>
      <trkpt lat="46.95108" lon="-0.87032">
        <ele>146</ele>
        <time>2021-12-13T17:12:07Z</time>
      </trkpt>
      <trkpt lat="46.95143" lon="-0.87026">
        <ele>144</ele>
        <time>2021-12-13T17:12:35Z</time>
      </trkpt>
      <trkpt lat="46.95249" lon="-0.87016">
        <ele>144</ele>
        <time>2021-12-13T17:14:01Z</time>
      </trkpt>
      <trkpt lat="46.95265" lon="-0.87012">
        <ele>145</ele>
        <time>2021-12-13T17:14:14Z</time>
      </trkpt>
      <trkpt lat="46.95258" lon="-0.86971">
        <ele>146</ele>
        <time>2021-12-13T17:14:37Z</time>
      </trkpt>
      <trkpt lat="46.95246" lon="-0.86868">
        <ele>149</ele>
        <time>2021-12-13T17:15:34Z</time>
      </trkpt>
      <trkpt lat="46.95246" lon="-0.86826">
        <ele>150</ele>
        <time>2021-12-13T17:15:57Z</time>
      </trkpt>
      <trkpt lat="46.95247" lon="-0.86797">
        <ele>152</ele>
        <time>2021-12-13T17:16:13Z</time>
      </trkpt>
      <trkpt lat="46.95243" lon="-0.86796">
        <ele>152</ele>
        <time>2021-12-13T17:16:16Z</time>
      </trkpt>
      <trkpt lat="46.95236" lon="-0.86789">
        <ele>152</ele>
        <time>2021-12-13T17:16:23Z</time>
      </trkpt>
      <trkpt lat="46.95176" lon="-0.86674">
        <ele>151</ele>
        <time>2021-12-13T17:17:42Z</time>
      </trkpt>
      <trkpt lat="46.95168" lon="-0.86664">
        <ele>151</ele>
        <time>2021-12-13T17:17:50Z</time>
      </trkpt>
      <trkpt lat="46.95156" lon="-0.86649">
        <ele>152</ele>
        <time>2021-12-13T17:18:03Z</time>
      </trkpt>
      <trkpt lat="46.95065" lon="-0.86564">
        <ele>151</ele>
        <time>2021-12-13T17:19:29Z</time>
      </trkpt>
      <trkpt lat="46.95048" lon="-0.86544">
        <ele>152</ele>
        <time>2021-12-13T17:19:47Z</time>
      </trkpt>
      <trkpt lat="46.95031" lon="-0.86521">
        <ele>153</ele>
        <time>2021-12-13T17:20:05Z</time>
      </trkpt>
      <trkpt lat="46.95019" lon="-0.86511">
        <ele>154</ele>
        <time>2021-12-13T17:20:16Z</time>
      </trkpt>
      <trkpt lat="46.95013" lon="-0.8651">
        <ele>154</ele>
        <time>2021-12-13T17:20:21Z</time>
      </trkpt>
      <trkpt lat="46.95017" lon="-0.86498">
        <ele>154</ele>
        <time>2021-12-13T17:20:28Z</time>
      </trkpt>
      <trkpt lat="46.95031" lon="-0.86492">
        <ele>154</ele>
        <time>2021-12-13T17:20:40Z</time>
      </trkpt>
      <trkpt lat="46.95039" lon="-0.86492">
        <ele>154</ele>
        <time>2021-12-13T17:20:46Z</time>
      </trkpt>
      <trkpt lat="46.95057" lon="-0.86484">
        <ele>155</ele>
        <time>2021-12-13T17:21:01Z</time>
      </trkpt>
      <trkpt lat="46.95124" lon="-0.86446">
        <ele>160</ele>
        <time>2021-12-13T17:21:59Z</time>
      </trkpt>
      <trkpt lat="46.95123" lon="-0.86435">
        <ele>160</ele>
        <time>2021-12-13T17:22:05Z</time>
      </trkpt>
      <trkpt lat="46.95108" lon="-0.86393">
        <ele>161</ele>
        <time>2021-12-13T17:22:31Z</time>
      </trkpt>
      <trkpt lat="46.95088" lon="-0.86347">
        <ele>162</ele>
        <time>2021-12-13T17:23:01Z</time>
      </trkpt>
      <trkpt lat="46.95068" lon="-0.86296">
        <ele>164</ele>
        <time>2021-12-13T17:23:33Z</time>
      </trkpt>
      <trkpt lat="46.95055" lon="-0.86275">
        <ele>164</ele>
        <time>2021-12-13T17:23:48Z</time>
      </trkpt>
      <trkpt lat="46.95029" lon="-0.86247">
        <ele>164</ele>
        <time>2021-12-13T17:24:14Z</time>
      </trkpt>
      <trkpt lat="46.95017" lon="-0.86223">
        <ele>165</ele>
        <time>2021-12-13T17:24:31Z</time>
      </trkpt>
      <trkpt lat="46.95009" lon="-0.86198">
        <ele>165</ele>
        <time>2021-12-13T17:24:46Z</time>
      </trkpt>
      <trkpt lat="46.94998" lon="-0.86129">
        <ele>167</ele>
        <time>2021-12-13T17:25:24Z</time>
      </trkpt>
      <trkpt lat="46.94997" lon="-0.86082">
        <ele>169</ele>
        <time>2021-12-13T17:25:50Z</time>
      </trkpt>
      <trkpt lat="46.94989" lon="-0.86036">
        <ele>169</ele>
        <time>2021-12-13T17:26:16Z</time>
      </trkpt>
      <trkpt lat="46.94976" lon="-0.85982">
        <ele>170</ele>
        <time>2021-12-13T17:26:47Z</time>
      </trkpt>
      <trkpt lat="46.9497" lon="-0.85961">
        <ele>170</ele>
        <time>2021-12-13T17:27:00Z</time>
      </trkpt>
      <trkpt lat="46.94952" lon="-0.85924">
        <ele>171</ele>
        <time>2021-12-13T17:27:25Z</time>
      </trkpt>
      <trkpt lat="46.94907" lon="-0.85838">
        <ele>173</ele>
        <time>2021-12-13T17:28:24Z</time>
      </trkpt>
      <trkpt lat="46.94836" lon="-0.85726">
        <ele>177</ele>
        <time>2021-12-13T17:29:47Z</time>
      </trkpt>
      <trkpt lat="46.94801" lon="-0.85646">
        <ele>178</ele>
        <time>2021-12-13T17:30:39Z</time>
      </trkpt>
      <trkpt lat="46.94791" lon="-0.85631">
        <ele>177</ele>
        <time>2021-12-13T17:30:51Z</time>
      </trkpt>
      <trkpt lat="46.94781" lon="-0.85627">
        <ele>177</ele>
        <time>2021-12-13T17:30:59Z</time>
      </trkpt>
      <trkpt lat="46.94773" lon="-0.85598">
        <ele>177</ele>
        <time>2021-12-13T17:31:16Z</time>
      </trkpt>
      <trkpt lat="46.9477" lon="-0.85583">
        <ele>176</ele>
        <time>2021-12-13T17:31:25Z</time>
      </trkpt>
      <trkpt lat="46.9477" lon="-0.85573">
        <ele>177</ele>
        <time>2021-12-13T17:31:30Z</time>
      </trkpt>
      <trkpt lat="46.94773" lon="-0.85564">
        <ele>177</ele>
        <time>2021-12-13T17:31:36Z</time>
      </trkpt>
      <trkpt lat="46.94778" lon="-0.85556">
        <ele>177</ele>
        <time>2021-12-13T17:31:42Z</time>
      </trkpt>
      <trkpt lat="46.94796" lon="-0.85534">
        <ele>177</ele>
        <time>2021-12-13T17:32:00Z</time>
      </trkpt>
      <trkpt lat="46.94826" lon="-0.85517">
        <ele>178</ele>
        <time>2021-12-13T17:32:26Z</time>
      </trkpt>
      <trkpt lat="46.94831" lon="-0.85511">
        <ele>178</ele>
        <time>2021-12-13T17:32:31Z</time>
      </trkpt>
      <trkpt lat="46.94835" lon="-0.85501">
        <ele>178</ele>
        <time>2021-12-13T17:32:38Z</time>
      </trkpt>
      <trkpt lat="46.94846" lon="-0.85393">
        <ele>178</ele>
        <time>2021-12-13T17:33:37Z</time>
      </trkpt>
      <trkpt lat="46.9485" lon="-0.85324">
        <ele>178</ele>
        <time>2021-12-13T17:34:15Z</time>
      </trkpt>
      <trkpt lat="46.94855" lon="-0.85218">
        <ele>179</ele>
        <time>2021-12-13T17:35:13Z</time>
      </trkpt>
      <trkpt lat="46.94859" lon="-0.85183">
        <ele>178</ele>
        <time>2021-12-13T17:35:33Z</time>
      </trkpt>
      <trkpt lat="46.94861" lon="-0.85112">
        <ele>177</ele>
        <time>2021-12-13T17:36:11Z</time>
      </trkpt>
      <trkpt lat="46.94856" lon="-0.85059">
        <ele>177</ele>
        <time>2021-12-13T17:36:41Z</time>
      </trkpt>
      <trkpt lat="46.94854" lon="-0.85002">
        <ele>177</ele>
        <time>2021-12-13T17:37:12Z</time>
      </trkpt>
      <trkpt lat="46.9485" lon="-0.84958">
        <ele>179</ele>
        <time>2021-12-13T17:37:36Z</time>
      </trkpt>
      <trkpt lat="46.94844" lon="-0.84914">
        <ele>181</ele>
        <time>2021-12-13T17:38:01Z</time>
      </trkpt>
      <trkpt lat="46.94829" lon="-0.84844">
        <ele>181</ele>
        <time>2021-12-13T17:38:41Z</time>
      </trkpt>
      <trkpt lat="46.94805" lon="-0.8475">
        <ele>180</ele>
        <time>2021-12-13T17:39:36Z</time>
      </trkpt>
      <trkpt lat="46.94805" lon="-0.84741">
        <ele>180</ele>
        <time>2021-12-13T17:39:41Z</time>
      </trkpt>
      <trkpt lat="46.94782" lon="-0.84691">
        <ele>178</ele>
        <time>2021-12-13T17:40:13Z</time>
      </trkpt>
      <trkpt lat="46.94763" lon="-0.84664">
        <ele>177</ele>
        <time>2021-12-13T17:40:35Z</time>
      </trkpt>
      <trkpt lat="46.94721" lon="-0.84587">
        <ele>179</ele>
        <time>2021-12-13T17:41:29Z</time>
      </trkpt>
      <trkpt lat="46.94703" lon="-0.84549">
        <ele>180</ele>
        <time>2021-12-13T17:41:54Z</time>
      </trkpt>
      <trkpt lat="46.94697" lon="-0.84532">
        <ele>180</ele>
        <time>2021-12-13T17:42:04Z</time>
      </trkpt>
      <trkpt lat="46.94682" lon="-0.8442">
        <ele>180</ele>
        <time>2021-12-13T17:43:07Z</time>
      </trkpt>
      <trkpt lat="46.94683" lon="-0.84332">
        <ele>181</ele>
        <time>2021-12-13T17:43:55Z</time>
      </trkpt>
      <trkpt lat="46.94682" lon="-0.84292">
        <ele>181</ele>
        <time>2021-12-13T17:44:17Z</time>
      </trkpt>
      <trkpt lat="46.94686" lon="-0.84229">
        <ele>181</ele>
        <time>2021-12-13T17:44:51Z</time>
      </trkpt>
      <trkpt lat="46.94685" lon="-0.8423">
        <ele>181</ele>
        <time>2021-12-13T17:44:52Z</time>
      </trkpt>
      <trkpt lat="46.94686" lon="-0.84229">
        <ele>181</ele>
        <time>2021-12-13T17:44:53Z</time>
      </trkpt>
      <trkpt lat="46.94682" lon="-0.84292">
        <ele>181</ele>
        <time>2021-12-13T17:45:28Z</time>
      </trkpt>
      <trkpt lat="46.94683" lon="-0.84332">
        <ele>181</ele>
        <time>2021-12-13T17:45:50Z</time>
      </trkpt>
      <trkpt lat="46.94682" lon="-0.8442">
        <ele>180</ele>
        <time>2021-12-13T17:46:38Z</time>
      </trkpt>
      <trkpt lat="46.94697" lon="-0.84532">
        <ele>180</ele>
        <time>2021-12-13T17:47:40Z</time>
      </trkpt>
      <trkpt lat="46.94703" lon="-0.84549">
        <ele>180</ele>
        <time>2021-12-13T17:47:51Z</time>
      </trkpt>
      <trkpt lat="46.94721" lon="-0.84587">
        <ele>179</ele>
        <time>2021-12-13T17:48:16Z</time>
      </trkpt>
      <trkpt lat="46.94763" lon="-0.84664">
        <ele>177</ele>
        <time>2021-12-13T17:49:10Z</time>
      </trkpt>
      <trkpt lat="46.94782" lon="-0.84691">
        <ele>178</ele>
        <time>2021-12-13T17:49:31Z</time>
      </trkpt>
      <trkpt lat="46.94805" lon="-0.84741">
        <ele>180</ele>
        <time>2021-12-13T17:50:04Z</time>
      </trkpt>
      <trkpt lat="46.94805" lon="-0.8475">
        <ele>180</ele>
        <time>2021-12-13T17:50:09Z</time>
      </trkpt>
      <trkpt lat="46.94829" lon="-0.84844">
        <ele>181</ele>
        <time>2021-12-13T17:51:04Z</time>
      </trkpt>
      <trkpt lat="46.94844" lon="-0.84914">
        <ele>181</ele>
        <time>2021-12-13T17:51:44Z</time>
      </trkpt>
      <trkpt lat="46.9485" lon="-0.84958">
        <ele>179</ele>
        <time>2021-12-13T17:52:08Z</time>
      </trkpt>
      <trkpt lat="46.94854" lon="-0.85002">
        <ele>177</ele>
        <time>2021-12-13T17:52:33Z</time>
      </trkpt>
      <trkpt lat="46.94856" lon="-0.85059">
        <ele>177</ele>
        <time>2021-12-13T17:53:04Z</time>
      </trkpt>
      <trkpt lat="46.94861" lon="-0.85112">
        <ele>177</ele>
        <time>2021-12-13T17:53:33Z</time>
      </trkpt>
      <trkpt lat="46.94859" lon="-0.85183">
        <ele>178</ele>
        <time>2021-12-13T17:54:12Z</time>
      </trkpt>
      <trkpt lat="46.94855" lon="-0.85218">
        <ele>179</ele>
        <time>2021-12-13T17:54:31Z</time>
      </trkpt>
      <trkpt lat="46.9485" lon="-0.85324">
        <ele>178</ele>
        <time>2021-12-13T17:55:29Z</time>
      </trkpt>
      <trkpt lat="46.94846" lon="-0.85393">
        <ele>178</ele>
        <time>2021-12-13T17:56:07Z</time>
      </trkpt>
      <trkpt lat="46.94835" lon="-0.85501">
        <ele>178</ele>
        <time>2021-12-13T17:57:07Z</time>
      </trkpt>
      <trkpt lat="46.94831" lon="-0.85511">
        <ele>178</ele>
        <time>2021-12-13T17:57:13Z</time>
      </trkpt>
      <trkpt lat="46.94826" lon="-0.85517">
        <ele>178</ele>
        <time>2021-12-13T17:57:18Z</time>
      </trkpt>
      <trkpt lat="46.94796" lon="-0.85534">
        <ele>177</ele>
        <time>2021-12-13T17:57:44Z</time>
      </trkpt>
      <trkpt lat="46.94778" lon="-0.85556">
        <ele>177</ele>
        <time>2021-12-13T17:58:03Z</time>
      </trkpt>
      <trkpt lat="46.94773" lon="-0.85564">
        <ele>177</ele>
        <time>2021-12-13T17:58:09Z</time>
      </trkpt>
      <trkpt lat="46.9477" lon="-0.85573">
        <ele>177</ele>
        <time>2021-12-13T17:58:14Z</time>
      </trkpt>
      <trkpt lat="46.9477" lon="-0.85583">
        <ele>176</ele>
        <time>2021-12-13T17:58:20Z</time>
      </trkpt>
      <trkpt lat="46.94773" lon="-0.85598">
        <ele>177</ele>
        <time>2021-12-13T17:58:28Z</time>
      </trkpt>
      <trkpt lat="46.94781" lon="-0.85627">
        <ele>177</ele>
        <time>2021-12-13T17:58:45Z</time>
      </trkpt>
      <trkpt lat="46.94783" lon="-0.8564">
        <ele>177</ele>
        <time>2021-12-13T17:58:53Z</time>
      </trkpt>
      <trkpt lat="46.94782" lon="-0.85654">
        <ele>177</ele>
        <time>2021-12-13T17:59:00Z</time>
      </trkpt>
      <trkpt lat="46.94779" lon="-0.85669">
        <ele>177</ele>
        <time>2021-12-13T17:59:09Z</time>
      </trkpt>
      <trkpt lat="46.9477" lon="-0.85693">
        <ele>177</ele>
        <time>2021-12-13T17:59:24Z</time>
      </trkpt>
      <trkpt lat="46.94732" lon="-0.85774">
        <ele>177</ele>
        <time>2021-12-13T18:00:18Z</time>
      </trkpt>
      <trkpt lat="46.9471" lon="-0.85809">
        <ele>177</ele>
        <time>2021-12-13T18:00:44Z</time>
      </trkpt>
      <trkpt lat="46.947" lon="-0.85822">
        <ele>177</ele>
        <time>2021-12-13T18:00:54Z</time>
      </trkpt>
      <trkpt lat="46.94677" lon="-0.85844">
        <ele>178</ele>
        <time>2021-12-13T18:01:16Z</time>
      </trkpt>
      <trkpt lat="46.946" lon="-0.85906">
        <ele>177</ele>
        <time>2021-12-13T18:02:27Z</time>
      </trkpt>
      <trkpt lat="46.94607" lon="-0.8596">
        <ele>178</ele>
        <time>2021-12-13T18:02:57Z</time>
      </trkpt>
      <trkpt lat="46.94609" lon="-0.85984">
        <ele>178</ele>
        <time>2021-12-13T18:03:10Z</time>
      </trkpt>
      <trkpt lat="46.94604" lon="-0.86069">
        <ele>178</ele>
        <time>2021-12-13T18:03:57Z</time>
      </trkpt>
      <trkpt lat="46.94598" lon="-0.86095">
        <ele>178</ele>
        <time>2021-12-13T18:04:12Z</time>
      </trkpt>
      <trkpt lat="46.94562" lon="-0.86157">
        <ele>176</ele>
        <time>2021-12-13T18:04:56Z</time>
      </trkpt>
      <trkpt lat="46.94558" lon="-0.8618">
        <ele>175</ele>
        <time>2021-12-13T18:05:09Z</time>
      </trkpt>
      <trkpt lat="46.94581" lon="-0.86384">
        <ele>174</ele>
        <time>2021-12-13T18:07:02Z</time>
      </trkpt>
      <trkpt lat="46.94612" lon="-0.86632">
        <ele>173</ele>
        <time>2021-12-13T18:09:20Z</time>
      </trkpt>
      <trkpt lat="46.94613" lon="-0.86669">
        <ele>172</ele>
        <time>2021-12-13T18:09:40Z</time>
      </trkpt>
      <trkpt lat="46.94612" lon="-0.8669">
        <ele>172</ele>
        <time>2021-12-13T18:09:52Z</time>
      </trkpt>
      <trkpt lat="46.94594" lon="-0.8676">
        <ele>172</ele>
        <time>2021-12-13T18:10:33Z</time>
      </trkpt>
      <trkpt lat="46.94581" lon="-0.86837">
        <ele>171</ele>
        <time>2021-12-13T18:11:16Z</time>
      </trkpt>
      <trkpt lat="46.94564" lon="-0.86911">
        <ele>170</ele>
        <time>2021-12-13T18:11:59Z</time>
      </trkpt>
      <trkpt lat="46.94558" lon="-0.86953">
        <ele>170</ele>
        <time>2021-12-13T18:12:22Z</time>
      </trkpt>
      <trkpt lat="46.94559" lon="-0.86975">
        <ele>171</ele>
        <time>2021-12-13T18:12:34Z</time>
      </trkpt>
      <trkpt lat="46.94564" lon="-0.87014">
        <ele>171</ele>
        <time>2021-12-13T18:12:56Z</time>
      </trkpt>
      <trkpt lat="46.94567" lon="-0.87061">
        <ele>171</ele>
        <time>2021-12-13T18:13:22Z</time>
      </trkpt>
      <trkpt lat="46.94568" lon="-0.87111">
        <ele>170</ele>
        <time>2021-12-13T18:13:49Z</time>
      </trkpt>
      <trkpt lat="46.94566" lon="-0.87131">
        <ele>169</ele>
        <time>2021-12-13T18:14:00Z</time>
      </trkpt>
      <trkpt lat="46.94581" lon="-0.87161">
        <ele>167</ele>
        <time>2021-12-13T18:14:20Z</time>
      </trkpt>
      <trkpt lat="46.94604" lon="-0.87199">
        <ele>165</ele>
        <time>2021-12-13T18:14:48Z</time>
      </trkpt>
      <trkpt lat="46.94668" lon="-0.87284">
        <ele>161</ele>
        <time>2021-12-13T18:15:57Z</time>
      </trkpt>
      <trkpt lat="46.94692" lon="-0.87313">
        <ele>161</ele>
        <time>2021-12-13T18:16:22Z</time>
      </trkpt>
      <trkpt lat="46.94703" lon="-0.87321">
        <ele>160</ele>
        <time>2021-12-13T18:16:32Z</time>
      </trkpt>
      <trkpt lat="46.94714" lon="-0.87324">
        <ele>160</ele>
        <time>2021-12-13T18:16:41Z</time>
      </trkpt>
      <trkpt lat="46.94725" lon="-0.87323">
        <ele>160</ele>
        <time>2021-12-13T18:16:50Z</time>
      </trkpt>
      <trkpt lat="46.94759" lon="-0.87297">
        <ele>161</ele>
        <time>2021-12-13T18:17:20Z</time>
      </trkpt>
      <trkpt lat="46.94896" lon="-0.87176">
        <ele>160</ele>
        <time>2021-12-13T18:19:29Z</time>
      </trkpt>
      <trkpt lat="46.94917" lon="-0.87147">
        <ele>159</ele>
        <time>2021-12-13T18:19:52Z</time>
      </trkpt>
    </trkseg>
  </trk>
</gpx>